sensor_id;sensor_type;location;lat;lon;timestamp;pressure;altitude;pressure_sealevel;temperature;humidity
39455;BME280;25155;41.890;23.446;2023-02-28T00:00:25;92274.84;;;5.96;68.10
39455;BME280;25155;41.890;23.446;2023-02-28T00:02:52;92257.09;;;5.93;68.16
39455;BME280;25155;41.890;23.446;2023-02-28T00:05:21;92268.56;;;5.92;68.40
39455;BME280;25155;41.890;23.446;2023-02-28T00:07:50;92268.00;;;5.90;68.75
39455;BME280;25155;41.890;23.446;2023-02-28T00:10:20;92265.63;;;5.89;69.51
39455;BME280;25155;41.890;23.446;2023-02-28T00:12:49;92267.47;;;5.88;69.21
39455;BME280;25155;41.890;23.446;2023-02-28T00:15:17;92272.72;;;5.93;69.45
39455;BME280;25155;41.890;23.446;2023-02-28T00:17:44;92273.56;;;5.99;68.63
39455;BME280;25155;41.890;23.446;2023-02-28T00:20:12;92269.63;;;5.96;68.26
39455;BME280;25155;41.890;23.446;2023-02-28T00:22:42;92253.72;;;5.93;68.92
39455;BME280;25155;41.890;23.446;2023-02-28T00:25:11;92263.13;;;5.94;69.00
39455;BME280;25155;41.890;23.446;2023-02-28T00:27:41;92270.13;;;5.93;69.23
39455;BME280;25155;41.890;23.446;2023-02-28T00:30:11;92272.41;;;5.90;68.60
39455;BME280;25155;41.890;23.446;2023-02-28T00:32:38;92265.53;;;5.78;69.83
39455;BME280;25155;41.890;23.446;2023-02-28T00:35:07;92266.25;;;5.74;69.78
39455;BME280;25155;41.890;23.446;2023-02-28T00:37:34;92278.72;;;5.72;70.39
39455;BME280;25155;41.890;23.446;2023-02-28T00:40:02;92264.94;;;5.71;69.73
39455;BME280;25155;41.890;23.446;2023-02-28T00:42:32;92269.41;;;5.76;69.37
39455;BME280;25155;41.890;23.446;2023-02-28T00:45:02;92256.59;;;5.69;68.98
39455;BME280;25155;41.890;23.446;2023-02-28T00:47:30;92271.16;;;5.70;69.29
39455;BME280;25155;41.890;23.446;2023-02-28T00:49:57;92277.00;;;5.60;70.53
39455;BME280;25155;41.890;23.446;2023-02-28T00:52:24;92284.78;;;5.38;72.06
39455;BME280;25155;41.890;23.446;2023-02-28T00:54:51;92273.31;;;5.34;71.94
39455;BME280;25155;41.890;23.446;2023-02-28T00:57:19;92268.16;;;5.39;71.87
39455;BME280;25155;41.890;23.446;2023-02-28T00:59:46;92271.41;;;5.46;71.54
39455;BME280;25155;41.890;23.446;2023-02-28T01:02:15;92258.94;;;5.48;71.00
39455;BME280;25155;41.890;23.446;2023-02-28T01:04:43;92259.75;;;5.49;70.67
39455;BME280;25155;41.890;23.446;2023-02-28T01:07:11;92275.34;;;5.49;70.56
39455;BME280;25155;41.890;23.446;2023-02-28T01:09:40;92287.38;;;5.38;71.68
39455;BME280;25155;41.890;23.446;2023-02-28T01:12:07;92275.16;;;5.39;71.33
39455;BME280;25155;41.890;23.446;2023-02-28T01:14:35;92254.53;;;5.32;70.73
39455;BME280;25155;41.890;23.446;2023-02-28T01:17:04;92252.50;;;5.34;70.82
39455;BME280;25155;41.890;23.446;2023-02-28T01:19:32;92262.41;;;5.37;70.78
39455;BME280;25155;41.890;23.446;2023-02-28T01:22:02;92262.63;;;5.36;70.27
39455;BME280;25155;41.890;23.446;2023-02-28T01:24:30;92254.53;;;5.32;69.92
39455;BME280;25155;41.890;23.446;2023-02-28T01:26:57;92259.19;;;5.30;70.11
39455;BME280;25155;41.890;23.446;2023-02-28T01:29:24;92269.91;;;5.34;70.01
39455;BME280;25155;41.890;23.446;2023-02-28T01:31:52;92277.56;;;5.23;70.36
39455;BME280;25155;41.890;23.446;2023-02-28T01:34:19;92258.19;;;5.14;70.65
39455;BME280;25155;41.890;23.446;2023-02-28T01:36:48;92251.22;;;5.15;70.31
39455;BME280;25155;41.890;23.446;2023-02-28T01:39:16;92254.59;;;5.15;70.15
39455;BME280;25155;41.890;23.446;2023-02-28T01:41:43;92262.00;;;5.06;70.39
39455;BME280;25155;41.890;23.446;2023-02-28T01:47:15;92260.53;;;4.93;70.26
39455;BME280;25155;41.890;23.446;2023-02-28T01:49:42;92253.50;;;4.94;70.02
39455;BME280;25155;41.890;23.446;2023-02-28T01:52:12;92263.59;;;4.90;70.00
39455;BME280;25155;41.890;23.446;2023-02-28T01:54:47;92264.06;;;4.87;69.72
39455;BME280;25155;41.890;23.446;2023-02-28T01:57:16;92264.72;;;4.61;70.49
39455;BME280;25155;41.890;23.446;2023-02-28T02:00:27;92268.25;;;4.71;70.34
39455;BME280;25155;41.890;23.446;2023-02-28T02:02:56;92273.84;;;4.80;70.38
39455;BME280;25155;41.890;23.446;2023-02-28T02:05:28;92274.16;;;4.84;69.92
39455;BME280;25155;41.890;23.446;2023-02-28T02:08:02;92276.97;;;4.82;69.50
39455;BME280;25155;41.890;23.446;2023-02-28T02:10:33;92286.13;;;4.85;69.30
39455;BME280;25155;41.890;23.446;2023-02-28T02:13:29;92286.13;;;4.85;69.27
39455;BME280;25155;41.890;23.446;2023-02-28T02:18:41;92292.41;;;4.89;69.29
39455;BME280;25155;41.890;23.446;2023-02-28T02:21:47;92292.00;;;4.80;68.79
39455;BME280;25155;41.890;23.446;2023-02-28T02:27:53;92304.38;;;4.73;69.92
39455;BME280;25155;41.890;23.446;2023-02-28T02:30:57;92306.09;;;4.67;69.41
39455;BME280;25155;41.890;23.446;2023-02-28T02:36:34;92308.91;;;4.66;68.78
39455;BME280;25155;41.890;23.446;2023-02-28T02:39:07;92307.38;;;4.65;68.67
39455;BME280;25155;41.890;23.446;2023-02-28T02:41:41;92310.19;;;4.63;68.95
39455;BME280;25155;41.890;23.446;2023-02-28T02:44:16;92316.84;;;4.59;68.64
39455;BME280;25155;41.890;23.446;2023-02-28T02:46:45;92321.28;;;4.58;68.58
39455;BME280;25155;41.890;23.446;2023-02-28T02:49:20;92315.31;;;4.58;69.04
39455;BME280;25155;41.890;23.446;2023-02-28T02:51:55;92319.06;;;4.50;68.95
39455;BME280;25155;41.890;23.446;2023-02-28T02:54:28;92320.22;;;4.43;68.65
39455;BME280;25155;41.890;23.446;2023-02-28T02:56:59;92318.56;;;4.36;68.79
39455;BME280;25155;41.890;23.446;2023-02-28T02:59:30;92321.63;;;4.33;69.31
39455;BME280;25155;41.890;23.446;2023-02-28T03:02:00;92324.47;;;4.32;68.92
39455;BME280;25155;41.890;23.446;2023-02-28T03:04:32;92320.50;;;4.29;68.74
39455;BME280;25155;41.890;23.446;2023-02-28T03:07:06;92339.44;;;4.30;68.96
39455;BME280;25155;41.890;23.446;2023-02-28T03:09:34;92328.97;;;4.25;69.13
39455;BME280;25155;41.890;23.446;2023-02-28T03:12:03;92331.81;;;4.23;69.09
39455;BME280;25155;41.890;23.446;2023-02-28T03:14:40;92330.72;;;4.19;68.75
39455;BME280;25155;41.890;23.446;2023-02-28T03:17:27;92341.13;;;4.07;69.89
39455;BME280;25155;41.890;23.446;2023-02-28T03:20:06;92343.19;;;3.93;70.93
39455;BME280;25155;41.890;23.446;2023-02-28T03:22:50;92338.59;;;3.83;70.62
39455;BME280;25155;41.890;23.446;2023-02-28T03:25:22;92334.78;;;3.74;71.02
39455;BME280;25155;41.890;23.446;2023-02-28T03:28:00;92347.19;;;3.72;71.60
39455;BME280;25155;41.890;23.446;2023-02-28T03:30:37;92343.91;;;3.77;70.96
39455;BME280;25155;41.890;23.446;2023-02-28T03:33:08;92352.25;;;3.79;70.81
39455;BME280;25155;41.890;23.446;2023-02-28T03:35:41;92346.63;;;3.82;70.41
39455;BME280;25155;41.890;23.446;2023-02-28T03:38:15;92353.34;;;3.83;69.97
39455;BME280;25155;41.890;23.446;2023-02-28T03:40:48;92361.25;;;3.88;69.91
39455;BME280;25155;41.890;23.446;2023-02-28T03:43:20;92354.25;;;3.89;69.71
39455;BME280;25155;41.890;23.446;2023-02-28T03:45:50;92356.38;;;3.92;69.76
39455;BME280;25155;41.890;23.446;2023-02-28T03:48:22;92351.78;;;3.94;69.78
39455;BME280;25155;41.890;23.446;2023-02-28T03:50:55;92357.50;;;3.96;69.45
39455;BME280;25155;41.890;23.446;2023-02-28T03:53:30;92348.72;;;3.97;69.23
39455;BME280;25155;41.890;23.446;2023-02-28T03:56:03;92351.31;;;3.97;69.53
39455;BME280;25155;41.890;23.446;2023-02-28T03:58:37;92353.09;;;3.96;69.25
39455;BME280;25155;41.890;23.446;2023-02-28T04:01:09;92353.91;;;3.97;69.55
39455;BME280;25155;41.890;23.446;2023-02-28T04:03:39;92355.91;;;3.95;71.22
39455;BME280;25155;41.890;23.446;2023-02-28T04:06:12;92357.63;;;3.89;70.96
39455;BME280;25155;41.890;23.446;2023-02-28T04:08:42;92355.28;;;3.88;70.61
39455;BME280;25155;41.890;23.446;2023-02-28T04:11:19;92359.81;;;3.80;70.67
39455;BME280;25155;41.890;23.446;2023-02-28T04:13:48;92364.19;;;3.80;70.23
39455;BME280;25155;41.890;23.446;2023-02-28T04:16:17;92368.59;;;3.79;70.08
39455;BME280;25155;41.890;23.446;2023-02-28T04:18:45;92357.22;;;3.80;70.00
39455;BME280;25155;41.890;23.446;2023-02-28T04:21:13;92354.41;;;3.82;69.88
39455;BME280;25155;41.890;23.446;2023-02-28T04:23:42;92364.53;;;3.83;70.18
39455;BME280;25155;41.890;23.446;2023-02-28T04:26:09;92375.22;;;3.87;70.42
39455;BME280;25155;41.890;23.446;2023-02-28T04:28:37;92374.44;;;3.87;70.45
39455;BME280;25155;41.890;23.446;2023-02-28T04:31:05;92371.28;;;3.84;70.79
39455;BME280;25155;41.890;23.446;2023-02-28T04:33:32;92367.00;;;3.78;71.77
39455;BME280;25155;41.890;23.446;2023-02-28T04:36:01;92377.38;;;3.78;72.13
39455;BME280;25155;41.890;23.446;2023-02-28T04:38:29;92382.91;;;3.82;71.55
39455;BME280;25155;41.890;23.446;2023-02-28T04:40:59;92382.69;;;3.83;71.62
39455;BME280;25155;41.890;23.446;2023-02-28T04:43:27;92381.19;;;3.88;71.24
39455;BME280;25155;41.890;23.446;2023-02-28T04:45:55;92386.72;;;3.91;71.06
39455;BME280;25155;41.890;23.446;2023-02-28T04:48:23;92387.97;;;3.89;71.79
39455;BME280;25155;41.890;23.446;2023-02-28T04:50:51;92382.78;;;3.89;71.28
39455;BME280;25155;41.890;23.446;2023-02-28T04:53:18;92388.75;;;3.89;71.32
39455;BME280;25155;41.890;23.446;2023-02-28T04:55:45;92381.19;;;3.88;71.36
39455;BME280;25155;41.890;23.446;2023-02-28T04:58:14;92383.13;;;3.92;71.28
39455;BME280;25155;41.890;23.446;2023-02-28T05:00:42;92386.81;;;3.96;70.84
39455;BME280;25155;41.890;23.446;2023-02-28T05:03:09;92390.75;;;3.99;70.65
39455;BME280;25155;41.890;23.446;2023-02-28T05:05:36;92391.78;;;3.98;71.48
39455;BME280;25155;41.890;23.446;2023-02-28T05:08:04;92385.03;;;3.97;71.75
39455;BME280;25155;41.890;23.446;2023-02-28T05:10:31;92393.59;;;3.97;71.82
39455;BME280;25155;41.890;23.446;2023-02-28T05:12:58;92395.72;;;4.00;71.92
39455;BME280;25155;41.890;23.446;2023-02-28T05:15:28;92403.06;;;3.92;72.62
39455;BME280;25155;41.890;23.446;2023-02-28T05:17:55;92409.28;;;3.91;72.93
39455;BME280;25155;41.890;23.446;2023-02-28T05:20:22;92399.81;;;3.84;73.46
39455;BME280;25155;41.890;23.446;2023-02-28T05:22:50;92403.19;;;3.85;73.09
39455;BME280;25155;41.890;23.446;2023-02-28T05:25:20;92412.09;;;3.89;72.89
39455;BME280;25155;41.890;23.446;2023-02-28T05:27:48;92411.88;;;3.91;72.99
39455;BME280;25155;41.890;23.446;2023-02-28T05:30:17;92423.69;;;3.98;72.74
39455;BME280;25155;41.890;23.446;2023-02-28T05:32:50;92422.44;;;4.01;72.46
39455;BME280;25155;41.890;23.446;2023-02-28T05:35:18;92433.94;;;4.05;72.34
39455;BME280;25155;41.890;23.446;2023-02-28T05:37:45;92425.94;;;4.07;71.80
39455;BME280;25155;41.890;23.446;2023-02-28T05:40:13;92432.47;;;4.09;72.21
39455;BME280;25155;41.890;23.446;2023-02-28T05:42:41;92423.44;;;4.12;71.54
39455;BME280;25155;41.890;23.446;2023-02-28T05:45:10;92433.59;;;4.13;71.92
39455;BME280;25155;41.890;23.446;2023-02-28T05:47:37;92431.31;;;4.17;71.71
39455;BME280;25155;41.890;23.446;2023-02-28T05:50:08;92436.53;;;4.17;71.37
39455;BME280;25155;41.890;23.446;2023-02-28T05:52:36;92422.88;;;4.22;71.77
39455;BME280;25155;41.890;23.446;2023-02-28T05:55:05;92433.25;;;4.22;71.79
39455;BME280;25155;41.890;23.446;2023-02-28T05:57:32;92426.47;;;4.20;72.82
39455;BME280;25155;41.890;23.446;2023-02-28T06:00:00;92429.75;;;4.16;73.44
39455;BME280;25155;41.890;23.446;2023-02-28T06:02:27;92435.25;;;4.19;73.11
39455;BME280;25155;41.890;23.446;2023-02-28T06:04:54;92438.44;;;4.22;73.19
39455;BME280;25155;41.890;23.446;2023-02-28T06:07:22;92437.97;;;4.13;74.09
39455;BME280;25155;41.890;23.446;2023-02-28T06:09:49;92434.38;;;4.14;74.03
39455;BME280;25155;41.890;23.446;2023-02-28T06:12:17;92444.06;;;4.18;74.07
39455;BME280;25155;41.890;23.446;2023-02-28T06:14:44;92438.97;;;4.24;73.54
39455;BME280;25155;41.890;23.446;2023-02-28T06:17:11;92445.28;;;4.28;73.26
39455;BME280;25155;41.890;23.446;2023-02-28T06:19:38;92447.66;;;4.29;73.51
39455;BME280;25155;41.890;23.446;2023-02-28T06:22:07;92452.59;;;4.31;73.22
39455;BME280;25155;41.890;23.446;2023-02-28T06:24:36;92452.38;;;4.32;73.33
39455;BME280;25155;41.890;23.446;2023-02-28T06:27:03;92446.50;;;4.37;73.06
39455;BME280;25155;41.890;23.446;2023-02-28T06:29:31;92449.34;;;4.35;73.26
39455;BME280;25155;41.890;23.446;2023-02-28T06:31:58;92449.09;;;4.37;73.66
39455;BME280;25155;41.890;23.446;2023-02-28T06:34:25;92450.78;;;4.43;73.25
39455;BME280;25155;41.890;23.446;2023-02-28T06:36:52;92451.09;;;4.47;72.86
39455;BME280;25155;41.890;23.446;2023-02-28T06:39:19;92454.25;;;4.49;73.47
39455;BME280;25155;41.890;23.446;2023-02-28T06:41:48;92451.44;;;4.50;73.18
39455;BME280;25155;41.890;23.446;2023-02-28T06:44:18;92450.53;;;4.56;73.16
39455;BME280;25155;41.890;23.446;2023-02-28T06:46:45;92458.41;;;4.62;72.71
39455;BME280;25155;41.890;23.446;2023-02-28T06:49:12;92461.53;;;4.64;73.33
39455;BME280;25155;41.890;23.446;2023-02-28T06:51:42;92456.59;;;4.62;73.09
39455;BME280;25155;41.890;23.446;2023-02-28T06:54:11;92464.22;;;4.69;73.13
39455;BME280;25155;41.890;23.446;2023-02-28T06:56:38;92460.94;;;4.73;73.04
39455;BME280;25155;41.890;23.446;2023-02-28T06:59:07;92446.94;;;4.74;72.73
39455;BME280;25155;41.890;23.446;2023-02-28T07:01:34;92457.19;;;4.81;72.67
39455;BME280;25155;41.890;23.446;2023-02-28T07:04:01;92457.97;;;4.82;73.25
39455;BME280;25155;41.890;23.446;2023-02-28T07:06:29;92461.34;;;4.82;73.52
39455;BME280;25155;41.890;23.446;2023-02-28T07:08:56;92462.47;;;4.86;73.12
39455;BME280;25155;41.890;23.446;2023-02-28T07:11:25;92469.00;;;4.89;73.59
39455;BME280;25155;41.890;23.446;2023-02-28T07:13:53;92463.81;;;4.89;73.35
39455;BME280;25155;41.890;23.446;2023-02-28T07:16:23;92462.88;;;4.95;73.16
39455;BME280;25155;41.890;23.446;2023-02-28T07:18:52;92470.00;;;5.00;73.46
39455;BME280;25155;41.890;23.446;2023-02-28T07:21:20;92471.91;;;5.04;72.96
39455;BME280;25155;41.890;23.446;2023-02-28T07:23:48;92470.94;;;5.10;73.13
39455;BME280;25155;41.890;23.446;2023-02-28T07:26:17;92467.09;;;5.13;72.96
39455;BME280;25155;41.890;23.446;2023-02-28T07:28:47;92469.31;;;5.21;72.80
39455;BME280;25155;41.890;23.446;2023-02-28T07:31:16;92469.41;;;5.26;73.17
39455;BME280;25155;41.890;23.446;2023-02-28T07:33:45;92467.34;;;5.28;73.24
39455;BME280;25155;41.890;23.446;2023-02-28T07:36:14;92462.88;;;5.41;73.62
39455;BME280;25155;41.890;23.446;2023-02-28T07:38:45;92461.72;;;5.48;73.31
39455;BME280;25155;41.890;23.446;2023-02-28T07:41:14;92463.91;;;5.57;73.62
39455;BME280;25155;41.890;23.446;2023-02-28T07:56:08;92447.41;;;7.23;70.48
39455;BME280;25155;41.890;23.446;2023-02-28T07:58:36;92446.66;;;6.95;71.92
39455;BME280;25155;41.890;23.446;2023-02-28T08:01:07;92442.81;;;6.75;72.73
39455;BME280;25155;41.890;23.446;2023-02-28T08:03:35;92452.94;;;6.72;73.35
39455;BME280;25155;41.890;23.446;2023-02-28T08:06:02;92454.47;;;6.73;73.86
39455;BME280;25155;41.890;23.446;2023-02-28T08:08:30;92451.34;;;6.71;74.01
39455;BME280;25155;41.890;23.446;2023-02-28T08:10:58;92450.91;;;6.79;74.00
39455;BME280;25155;41.890;23.446;2023-02-28T08:13:28;92444.19;;;6.83;73.62
39455;BME280;25155;41.890;23.446;2023-02-28T08:15:56;92434.59;;;6.89;73.83
39455;BME280;25155;41.890;23.446;2023-02-28T08:18:23;92443.03;;;7.01;73.50
39455;BME280;25155;41.890;23.446;2023-02-28T08:20:51;92443.91;;;7.07;73.53
39455;BME280;25155;41.890;23.446;2023-02-28T08:23:18;92443.22;;;7.16;73.30
39455;BME280;25155;41.890;23.446;2023-02-28T08:25:52;92439.31;;;7.19;72.11
39455;BME280;25155;41.890;23.446;2023-02-28T08:28:19;92437.78;;;7.23;72.36
39455;BME280;25155;41.890;23.446;2023-02-28T08:30:47;92448.78;;;7.30;72.67
39455;BME280;25155;41.890;23.446;2023-02-28T08:33:14;92442.38;;;7.38;72.28
39455;BME280;25155;41.890;23.446;2023-02-28T08:35:41;92441.41;;;7.44;71.97
39455;BME280;25155;41.890;23.446;2023-02-28T08:38:09;92431.25;;;7.48;71.39
39455;BME280;25155;41.890;23.446;2023-02-28T08:40:36;92435.19;;;7.56;71.88
39455;BME280;25155;41.890;23.446;2023-02-28T08:43:04;92428.75;;;7.63;71.62
39455;BME280;25155;41.890;23.446;2023-02-28T08:45:31;92428.03;;;7.73;71.44
39455;BME280;25155;41.890;23.446;2023-02-28T08:47:59;92433.28;;;7.78;70.95
39455;BME280;25155;41.890;23.446;2023-02-28T08:50:27;92422.34;;;7.81;70.14
39455;BME280;25155;41.890;23.446;2023-02-28T08:52:54;92420.25;;;7.83;70.45
39455;BME280;25155;41.890;23.446;2023-02-28T08:55:21;92422.91;;;7.88;69.63
39455;BME280;25155;41.890;23.446;2023-02-28T08:57:48;92424.28;;;8.01;69.27
39455;BME280;25155;41.890;23.446;2023-02-28T09:00:16;92422.22;;;8.08;68.90
39455;BME280;25155;41.890;23.446;2023-02-28T09:02:43;92430.38;;;8.17;67.76
39455;BME280;25155;41.890;23.446;2023-02-28T09:05:11;92423.34;;;8.23;67.85
39455;BME280;25155;41.890;23.446;2023-02-28T09:07:39;92414.78;;;8.33;67.82
39455;BME280;25155;41.890;23.446;2023-02-28T09:10:07;92418.47;;;8.42;66.97
39455;BME280;25155;41.890;23.446;2023-02-28T09:12:34;92415.88;;;8.47;66.49
39455;BME280;25155;41.890;23.446;2023-02-28T09:15:02;92413.53;;;8.51;66.06
39455;BME280;25155;41.890;23.446;2023-02-28T09:17:29;92406.47;;;8.46;65.38
39455;BME280;25155;41.890;23.446;2023-02-28T09:19:57;92404.88;;;8.45;65.78
39455;BME280;25155;41.890;23.446;2023-02-28T09:22:26;92405.97;;;8.49;65.37
39455;BME280;25155;41.890;23.446;2023-02-28T09:24:53;92403.34;;;8.54;65.15
39455;BME280;25155;41.890;23.446;2023-02-28T09:27:21;92407.81;;;8.59;64.80
39455;BME280;25155;41.890;23.446;2023-02-28T09:29:48;92400.25;;;8.62;64.75
39455;BME280;25155;41.890;23.446;2023-02-28T09:32:15;92396.63;;;8.74;64.74
39455;BME280;25155;41.890;23.446;2023-02-28T09:34:43;92396.13;;;8.77;63.72
39455;BME280;25155;41.890;23.446;2023-02-28T09:37:10;92394.03;;;8.79;63.41
39455;BME280;25155;41.890;23.446;2023-02-28T09:39:39;92393.50;;;8.82;64.25
39455;BME280;25155;41.890;23.446;2023-02-28T09:42:18;92392.47;;;8.88;64.12
39455;BME280;25155;41.890;23.446;2023-02-28T09:44:49;92384.13;;;8.91;63.88
39455;BME280;25155;41.890;23.446;2023-02-28T09:47:25;92378.38;;;8.99;63.44
39455;BME280;25155;41.890;23.446;2023-02-28T09:49:54;92383.41;;;9.16;63.32
39455;BME280;25155;41.890;23.446;2023-02-28T09:52:28;92376.59;;;9.26;62.15
39455;BME280;25155;41.890;23.446;2023-02-28T09:55:00;92372.66;;;9.28;62.40
39455;BME280;25155;41.890;23.446;2023-02-28T09:57:34;92381.56;;;9.32;62.07
39455;BME280;25155;41.890;23.446;2023-02-28T10:00:13;92373.19;;;9.30;60.41
39455;BME280;25155;41.890;23.446;2023-02-28T10:03:00;92365.59;;;9.29;60.96
39455;BME280;25155;41.890;23.446;2023-02-28T10:05:34;92368.22;;;9.29;60.89
39455;BME280;25155;41.890;23.446;2023-02-28T10:08:09;92360.63;;;9.43;61.21
39455;BME280;25155;41.890;23.446;2023-02-28T10:10:42;92357.22;;;9.52;60.99
39455;BME280;25155;41.890;23.446;2023-02-28T10:13:21;92362.97;;;9.60;61.18
39455;BME280;25155;41.890;23.446;2023-02-28T10:15:53;92364.50;;;9.66;61.18
39455;BME280;25155;41.890;23.446;2023-02-28T10:18:24;92354.31;;;9.74;61.31
39455;BME280;25155;41.890;23.446;2023-02-28T10:20:54;92350.09;;;9.84;61.26
39455;BME280;25155;41.890;23.446;2023-02-28T10:23:26;92342.47;;;9.98;59.60
39455;BME280;25155;41.890;23.446;2023-02-28T10:25:57;92339.66;;;9.68;60.45
39455;BME280;25155;41.890;23.446;2023-02-28T10:28:26;92334.91;;;9.91;59.75
39455;BME280;25155;41.890;23.446;2023-02-28T10:30:57;92335.16;;;9.95;59.16
39455;BME280;25155;41.890;23.446;2023-02-28T10:33:29;92333.53;;;9.99;59.94
39455;BME280;25155;41.890;23.446;2023-02-28T10:35:57;92328.28;;;10.04;59.83
39455;BME280;25155;41.890;23.446;2023-02-28T10:38:26;92321.25;;;10.04;59.75
39455;BME280;25155;41.890;23.446;2023-02-28T10:41:05;92309.69;;;10.05;60.30
39455;BME280;25155;41.890;23.446;2023-02-28T10:43:32;92317.50;;;10.21;60.73
39455;BME280;25155;41.890;23.446;2023-02-28T10:46:03;92311.72;;;10.29;60.53
39455;BME280;25155;41.890;23.446;2023-02-28T10:48:37;92300.16;;;10.30;60.21
39455;BME280;25155;41.890;23.446;2023-02-28T10:51:05;92307.75;;;10.37;60.26
39455;BME280;25155;41.890;23.446;2023-02-28T10:53:38;92306.47;;;10.34;59.80
39455;BME280;25155;41.890;23.446;2023-02-28T10:56:17;92298.84;;;10.38;60.07
39455;BME280;25155;41.890;23.446;2023-02-28T10:58:52;92298.59;;;10.39;59.79
39455;BME280;25155;41.890;23.446;2023-02-28T11:01:22;92294.88;;;10.45;60.41
39455;BME280;25155;41.890;23.446;2023-02-28T11:03:51;92287.81;;;10.46;60.10
39455;BME280;25155;41.890;23.446;2023-02-28T11:06:20;92296.47;;;10.41;58.88
39455;BME280;25155;41.890;23.446;2023-02-28T11:08:51;92289.13;;;10.43;59.84
39455;BME280;25155;41.890;23.446;2023-02-28T11:11:23;92285.44;;;10.44;59.96
39455;BME280;25155;41.890;23.446;2023-02-28T11:13:53;92284.09;;;10.52;59.57
39455;BME280;25155;41.890;23.446;2023-02-28T11:16:21;92290.63;;;10.55;58.87
39455;BME280;25155;41.890;23.446;2023-02-28T11:18:57;92277.47;;;10.60;59.11
39455;BME280;25155;41.890;23.446;2023-02-28T11:21:27;92279.84;;;10.61;58.95
39455;BME280;25155;41.890;23.446;2023-02-28T11:24:01;92280.38;;;10.58;58.67
39455;BME280;25155;41.890;23.446;2023-02-28T11:26:38;92273.59;;;10.57;58.55
39455;BME280;25155;41.890;23.446;2023-02-28T11:29:18;92274.59;;;10.61;58.90
39455;BME280;25155;41.890;23.446;2023-02-28T11:32:17;92271.97;;;10.61;59.43
39455;BME280;25155;41.890;23.446;2023-02-28T11:34:47;92252.22;;;10.74;58.87
39455;BME280;25155;41.890;23.446;2023-02-28T11:37:27;92251.19;;;10.75;59.04
39455;BME280;25155;41.890;23.446;2023-02-28T11:39:55;92242.75;;;10.78;58.88
39455;BME280;25155;41.890;23.446;2023-02-28T11:42:50;92249.09;;;10.72;58.84
39455;BME280;25155;41.890;23.446;2023-02-28T11:45:30;92247.75;;;10.75;59.27
39455;BME280;25155;41.890;23.446;2023-02-28T11:48:05;92247.22;;;10.78;59.54
39455;BME280;25155;41.890;23.446;2023-02-28T11:50:56;92241.97;;;10.78;59.42
39455;BME280;25155;41.890;23.446;2023-02-28T11:53:40;92236.50;;;10.74;59.53
39455;BME280;25155;41.890;23.446;2023-02-28T11:56:18;92239.63;;;10.76;59.84
39455;BME280;25155;41.890;23.446;2023-02-28T11:58:55;92236.72;;;10.78;59.68
39455;BME280;25155;41.890;23.446;2023-02-28T12:01:35;92234.63;;;10.80;59.33
39455;BME280;25155;41.890;23.446;2023-02-28T12:04:16;92232.25;;;10.78;59.48
39455;BME280;25155;41.890;23.446;2023-02-28T12:06:48;92238.81;;;10.41;59.83
39455;BME280;25155;41.890;23.446;2023-02-28T12:09:29;92240.25;;;10.63;60.20
39455;BME280;25155;41.890;23.446;2023-02-28T12:12:04;92231.03;;;10.71;59.80
39455;BME280;25155;41.890;23.446;2023-02-28T12:15:01;92221.59;;;10.70;59.66
39455;BME280;25155;41.890;23.446;2023-02-28T12:17:44;92212.41;;;10.72;60.00
39455;BME280;25155;41.890;23.446;2023-02-28T12:20:25;92211.88;;;10.75;60.29
39455;BME280;25155;41.890;23.446;2023-02-28T12:23:09;92216.03;;;10.76;60.14
39455;BME280;25155;41.890;23.446;2023-02-28T12:25:50;92211.28;;;10.78;60.04
39455;BME280;25155;41.890;23.446;2023-02-28T12:28:25;92205.50;;;10.81;59.76
39455;BME280;25155;41.890;23.446;2023-02-28T12:30:58;92205.50;;;10.81;59.71
39455;BME280;25155;41.890;23.446;2023-02-28T12:33:33;92210.47;;;10.83;59.40
39455;BME280;25155;41.890;23.446;2023-02-28T12:36:07;92206.81;;;10.84;59.72
39455;BME280;25155;41.890;23.446;2023-02-28T12:38:40;92211.78;;;10.86;59.19
39455;BME280;25155;41.890;23.446;2023-02-28T12:41:13;92200.22;;;10.87;59.25
39455;BME280;25155;41.890;23.446;2023-02-28T12:43:44;92199.38;;;10.91;59.53
39455;BME280;25155;41.890;23.446;2023-02-28T12:46:18;92192.56;;;10.95;59.47
39455;BME280;25155;41.890;23.446;2023-02-28T12:48:48;92193.28;;;11.01;59.19
39455;BME280;25155;41.890;23.446;2023-02-28T12:51:17;92189.06;;;11.05;59.19
39455;BME280;25155;41.890;23.446;2023-02-28T12:53:56;92183.28;;;11.03;58.55
39455;BME280;25155;41.890;23.446;2023-02-28T12:56:35;92183.00;;;11.05;58.87
39455;BME280;25155;41.890;23.446;2023-02-28T12:59:12;92177.22;;;11.08;58.44
39455;BME280;25155;41.890;23.446;2023-02-28T13:02:14;92180.09;;;11.06;58.79
39455;BME280;25155;41.890;23.446;2023-02-28T13:07:51;92176.44;;;11.07;59.06
39455;BME280;25155;41.890;23.446;2023-02-28T13:10:20;92169.84;;;11.10;58.77
39455;BME280;25155;41.890;23.446;2023-02-28T13:12:49;92175.38;;;11.08;57.88
39455;BME280;25155;41.890;23.446;2023-02-28T13:15:20;92175.38;;;11.08;58.17
39455;BME280;25155;41.890;23.446;2023-02-28T13:17:53;92174.59;;;11.08;58.30
39455;BME280;25155;41.890;23.446;2023-02-28T13:20:23;92171.19;;;11.07;58.73
39455;BME280;25155;41.890;23.446;2023-02-28T13:22:52;92170.91;;;11.09;58.48
39455;BME280;25155;41.890;23.446;2023-02-28T13:25:52;92177.31;;;10.97;59.13
39455;BME280;25155;41.890;23.446;2023-02-28T13:35:11;92175.03;;;10.91;58.97
39455;BME280;25155;41.890;23.446;2023-02-28T13:37:36;92168.03;;;10.81;58.42
39455;BME280;25155;41.890;23.446;2023-02-28T13:40:30;92179.34;;;10.76;58.32
39455;BME280;25155;41.890;23.446;2023-02-28T13:43:02;92183.75;;;10.81;58.17
39455;BME280;25155;41.890;23.446;2023-02-28T13:45:29;92180.31;;;10.86;58.27
39455;BME280;25155;41.890;23.446;2023-02-28T13:48:04;92182.41;;;10.83;58.29
39455;BME280;25155;41.890;23.446;2023-02-28T13:50:37;92184.81;;;10.80;58.35
39455;BME280;25155;41.890;23.446;2023-02-28T14:10:03;92186.44;;;11.29;56.78